createdAt,value
2017-09-19T12:19:48.131Z,65
2017-09-19T12:20:52.530Z,70
2017-09-19T12:24:12.956Z,70
2017-09-19T12:28:35.220Z,70
2017-09-19T12:29:49.051Z,70
2017-09-19T12:31:11.200Z,65
2017-09-19T12:31:52.338Z,65
2017-09-19T12:32:32.798Z,65
2017-09-19T12:33:16.362Z,65
2017-09-19T12:33:56.927Z,65
2017-09-19T12:34:37.684Z,65
2017-09-19T12:35:18.446Z,70
2017-09-19T12:35:59.013Z,65
2017-09-19T12:36:39.452Z,65
2017-09-19T12:37:19.891Z,65
2017-09-19T12:38:00.605Z,70
2017-09-19T12:38:41.086Z,70
2017-09-19T12:39:21.664Z,90
2017-09-19T12:40:02.020Z,85
2017-09-19T12:40:43.924Z,90
2017-09-19T12:41:24.945Z,85
2017-09-19T12:42:48.988Z,85
2017-09-19T12:47:23.689Z,60
2017-09-19T12:48:37.978Z,60
2017-09-19T12:52:28.280Z,60
2017-09-19T12:53:10.284Z,55
2017-09-19T12:53:51.055Z,50
2017-09-19T12:54:42.530Z,55
2017-09-19T12:55:22.728Z,75
2017-09-19T12:56:04.008Z,65
2017-09-19T12:56:47.529Z,75
2017-09-19T12:59:41.050Z,75
2017-09-19T13:00:56.260Z,85
2017-09-19T13:04:16.188Z,65
2017-09-19T13:05:18.253Z,60
2017-09-19T13:07:53.948Z,65
2017-09-19T13:08:35.664Z,65
2017-09-19T13:09:18.287Z,65
2017-09-19T13:10:01.031Z,60
2017-09-19T13:10:42.503Z,55
2017-09-19T13:11:35.743Z,50
2017-09-19T13:12:18.519Z,45
2017-09-19T13:17:41.557Z,40
2017-09-19T13:23:13.741Z,45
2017-09-19T13:24:31.105Z,65
2017-09-19T13:41:49.559Z,70
2017-09-19T13:43:01.869Z,70
2017-09-19T13:44:24.235Z,70
2017-09-19T13:45:55.056Z,70
2017-09-19T13:47:02.079Z,70
2017-09-19T13:48:24.823Z,70
2017-09-19T13:51:42.487Z,75
2017-09-19T13:52:22.192Z,80
2017-09-19T13:53:02.771Z,80
2017-09-19T13:53:44.464Z,80
2017-09-19T13:54:23.742Z,75
2017-09-19T13:55:04.269Z,75
2017-09-19T13:55:44.747Z,75
2017-09-19T13:56:25.199Z,75
2017-09-19T13:57:05.605Z,75
2017-09-19T13:57:46.041Z,70
2017-09-19T13:58:26.534Z,65
2017-09-19T13:59:07.401Z,65
2017-09-19T13:59:47.818Z,65
2017-09-19T14:00:28.044Z,65
2017-09-19T14:01:08.436Z,65
2017-09-19T14:01:50.479Z,60
2017-09-19T14:02:31.468Z,65
2017-09-19T14:03:12.502Z,65
2017-09-19T14:03:53.071Z,65
2017-09-19T14:04:33.555Z,65
2017-09-19T14:05:14.846Z,70
2017-09-19T14:18:49.763Z,40
2017-09-19T14:19:31.875Z,40
2017-09-19T14:20:14.784Z,40
2017-09-19T14:20:57.230Z,40
2017-09-19T14:21:38.253Z,35
2017-09-19T14:22:19.249Z,35
2017-09-19T14:23:01.329Z,30
2017-09-19T14:23:42.852Z,30
2017-09-19T14:24:23.171Z,30
2017-09-19T14:25:03.588Z,25
2017-09-19T14:25:46.724Z,25
2017-09-19T14:30:26.308Z,40
2017-09-19T14:31:33.598Z,40
2017-09-19T14:32:34.019Z,40
2017-09-19T14:36:58.703Z,40
2017-09-19T14:38:04.040Z,40
2017-09-19T14:39:09.715Z,40
2017-09-19T14:40:17.573Z,40
2017-09-19T14:41:20.633Z,40
2017-09-19T14:42:29.342Z,40
2017-09-19T14:43:39.469Z,35
2017-09-19T14:44:43.551Z,35
2017-09-19T14:47:28.952Z,45
2017-09-19T14:54:06.515Z,45
2017-09-19T14:55:09.512Z,45
2017-09-19T14:56:17.311Z,45
2017-09-19T14:57:13.292Z,50
2017-09-19T14:58:00.209Z,50
2017-09-19T14:58:40.674Z,50
2017-09-19T14:59:21.009Z,50
2017-09-19T15:00:02.922Z,50
2017-09-19T15:00:48.779Z,50
2017-09-19T15:01:31.041Z,50
2017-09-19T15:02:15.072Z,50
2017-09-19T15:02:56.506Z,50
2017-09-19T15:03:37.803Z,50
2017-09-19T15:04:18.451Z,50
2017-09-19T15:05:00.975Z,50
2017-09-19T15:05:41.888Z,50
2017-09-19T15:06:24.312Z,50
2017-09-19T15:07:04.707Z,50
2017-09-19T15:07:46.488Z,50
2017-09-19T15:08:28.474Z,50
2017-09-19T15:09:14.023Z,50
2017-09-19T15:09:56.209Z,50
2017-09-19T15:10:36.993Z,50
2017-09-19T15:11:17.557Z,50
2017-09-19T15:12:00.188Z,50
2017-09-19T15:12:42.476Z,50
2017-09-19T15:13:22.631Z,50
2017-09-19T15:14:03.415Z,45
2017-09-19T15:14:45.063Z,50
2017-09-19T15:15:26.019Z,50
2017-09-19T15:16:08.660Z,50
2017-09-19T15:16:49.894Z,50
2017-09-19T15:17:31.501Z,50
2017-09-19T15:18:14.397Z,50
2017-09-19T15:18:54.739Z,50
2017-09-19T15:19:37.718Z,50
2017-09-19T15:20:18.081Z,45
2017-09-19T15:20:58.726Z,45
2017-09-19T15:21:39.097Z,45
2017-09-19T15:22:21.054Z,45
2017-09-19T15:23:02.148Z,45
2017-09-19T15:23:42.506Z,45
2017-09-19T15:24:23.002Z,45
2017-09-19T15:25:03.311Z,45
2017-09-19T15:25:44.457Z,45
2017-09-19T15:26:26.321Z,45
2017-09-19T15:27:06.505Z,45
2017-09-19T15:27:47.003Z,40
2017-09-19T15:28:27.553Z,40
2017-09-19T15:29:08.117Z,40
2017-09-19T15:29:48.606Z,40
2017-09-19T15:30:31.785Z,40
2017-09-19T15:31:12.146Z,40
2017-09-19T15:31:52.628Z,40
2017-09-19T15:32:33.009Z,35
2017-09-19T15:33:13.467Z,40
2017-09-19T15:33:54.202Z,40
2017-09-19T15:34:35.583Z,40
2017-09-19T15:35:16.783Z,40
2017-09-19T15:35:57.389Z,40
2017-09-19T15:36:37.984Z,40
2017-09-19T15:37:18.402Z,40
2017-09-19T15:37:59.063Z,40
2017-09-19T15:38:39.467Z,40
2017-09-19T15:39:20.146Z,40
2017-09-19T15:40:01.009Z,40
2017-09-19T15:40:41.904Z,40
2017-09-19T15:41:23.778Z,40
2017-09-19T15:42:05.009Z,40
2017-09-19T15:42:45.838Z,40
2017-09-19T15:43:26.732Z,40
2017-09-19T15:44:07.439Z,35
2017-09-19T15:44:48.162Z,30
2017-09-19T15:45:28.752Z,35
2017-09-19T15:46:09.692Z,40
2017-09-19T15:46:50.556Z,40
2017-09-19T15:47:32.136Z,40
2017-09-19T15:48:12.754Z,35
2017-09-19T15:48:53.768Z,40
2017-09-19T15:49:34.839Z,40
2017-09-19T15:50:15.362Z,40
2017-09-19T15:50:56.455Z,40
2017-09-19T15:51:37.077Z,35
2017-09-19T15:52:17.937Z,35
2017-09-19T15:52:58.980Z,35
2017-09-19T15:53:39.746Z,35
2017-09-19T15:54:19.903Z,35
2017-09-19T15:55:00.605Z,35
2017-09-19T15:55:41.947Z,35
2017-09-19T15:56:22.855Z,35
2017-09-19T15:57:04.013Z,35
2017-09-19T15:57:44.107Z,35
2017-09-19T15:58:26.863Z,35
2017-09-19T15:59:07.938Z,30
2017-09-19T15:59:49.865Z,35
2017-09-19T16:00:32.246Z,35
2017-09-19T16:01:11.740Z,30
2017-09-19T16:01:52.961Z,30
2017-09-19T16:02:33.696Z,30
2017-09-19T16:03:14.346Z,30
2017-09-19T16:03:56.400Z,30
2017-09-19T16:04:36.502Z,30
2017-09-19T16:05:18.383Z,30
2017-09-19T16:05:59.622Z,30
2017-09-19T16:06:39.872Z,30
2017-09-19T16:07:21.489Z,30
2017-09-19T16:08:01.972Z,30
2017-09-19T16:08:49.607Z,25
2017-09-19T16:09:36.745Z,30
2017-09-19T16:10:17.331Z,25
2017-09-19T16:10:57.785Z,25
2017-09-19T16:11:38.182Z,25
2017-09-19T16:12:19.655Z,30
2017-09-19T16:13:00.153Z,25
2017-09-19T16:13:40.588Z,25
2017-09-19T16:14:21.144Z,25
2017-09-19T16:15:10.982Z,25
2017-09-19T16:15:51.823Z,30
2017-09-19T16:16:33.487Z,25
2017-09-19T16:17:14.462Z,25
2017-09-19T16:17:55.032Z,25
2017-09-19T16:18:35.499Z,25
2017-09-19T16:41:43.372Z,20
